Alcova, Wyoming
Current Conditions -  °F | °C
As of 10:53 AM on Thursday 23 Oct 2014 (Local Time) from KCPR Reporting Station
Clear Clear  
Wind Chill: 58°   Ceiling: Unl
Heat Index: 58°   Visibility: 10mi
Dew Point: 22°   Wind: 18mph
Humidity: 25%   Direction: 220°SW
Pressure: 30.1"   Gusts: 25mph
Location:  42.55°N, 106.72°W
Report Text: KCPR 231653Z 22016G22KT 10SM CLR 14/M06 A3010 RMK AO2 PK WND 22028/1554 SLP168 T01441056
Loading
Personal Weather Stations






























Interactive Weather Map New forecast layout! Learn more

10-Day Weather Forecast

Advertisements
Track Severe Weather on mobile